Black River, Minnesota
Current Conditions -  °F | °C
As of 12:55 PM on Thursday 23 Oct 2014 (Local Time) from KINL Reporting Station
Clear Clear  
Wind Chill: 62°   Ceiling: Unl
Heat Index: 62°   Visibility: 10mi
Dew Point: 47°   Wind: 10mph
Humidity: 58%   Direction: 220°SW
Pressure: 29.86"   Gusts: 18mph
Location:  48.5075°N, 93.9033°W
Report Text: KINL 231755Z AUTO 22009G16KT 10SM CLR 17/08 A2986 RMK AO2 SLP116 T01670083 10172 20094 58010
Loading
Personal Weather Stations






























Interactive Weather Map
Tropical Storm Tracking
New forecast layout! Learn more

10-Day Weather Forecast

Advertisements
Track Severe Weather on mobile